createdAt,value
2019-03-08T00:00:54.833Z,63.22
2019-03-08T00:03:25.485Z,63.62
2019-03-08T00:05:56.118Z,63.10
2019-03-08T00:08:26.993Z,62.99
2019-03-08T00:10:57.745Z,62.97
2019-03-08T00:13:28.399Z,63.47
2019-03-08T00:15:59.255Z,63.42
2019-03-08T00:18:30.010Z,63.65
2019-03-08T00:21:00.765Z,63.14
2019-03-08T00:23:31.343Z,63.34
2019-03-08T00:26:02.049Z,63.78
2019-03-08T00:28:32.923Z,63.36
2019-03-08T00:31:04.580Z,63.63
2019-03-08T00:33:35.354Z,64.05
2019-03-08T00:36:05.983Z,64.14
2019-03-08T00:38:36.962Z,64.27
2019-03-08T00:41:07.714Z,64.55
2019-03-08T00:43:38.468Z,65.18
2019-03-08T00:46:09.112Z,65.24
2019-03-08T00:48:39.979Z,64.90
2019-03-08T00:51:10.609Z,65.55
2019-03-08T00:53:41.364Z,65.32
2019-03-08T00:56:12.034Z,66.44
2019-03-08T00:58:45.328Z,66.66
2019-03-08T01:01:16.403Z,66.83
2019-03-08T01:03:47.158Z,66.81
2019-03-08T01:06:17.791Z,66.27
2019-03-08T01:08:48.646Z,66.62
2019-03-08T01:11:19.525Z,66.67
2019-03-08T01:13:50.276Z,66.62
2019-03-08T01:16:20.931Z,67.15
2019-03-08T01:18:51.783Z,66.90
2019-03-08T01:21:22.415Z,66.86
2019-03-08T01:23:53.175Z,67.22
2019-03-08T01:26:23.839Z,68.03
2019-03-08T01:28:54.699Z,68.04
2019-03-08T01:31:26.472Z,67.56
2019-03-08T01:33:57.332Z,67.88
2019-03-08T01:36:27.963Z,67.87
2019-03-08T01:38:58.739Z,68.33
2019-03-08T01:41:29.591Z,68.77
2019-03-08T01:44:00.346Z,68.56
2019-03-08T01:46:31.098Z,69.03
2019-03-08T01:49:01.955Z,69.05
2019-03-08T01:51:32.811Z,69.62
2019-03-08T01:54:03.564Z,69.66
2019-03-08T01:56:34.097Z,69.38
2019-03-08T01:59:04.975Z,69.65
2019-03-08T02:01:35.707Z,69.61
2019-03-08T02:04:06.477Z,69.61
2019-03-08T02:06:37.119Z,69.29
2019-03-08T02:09:07.967Z,69.41
2019-03-08T02:11:38.739Z,69.30
2019-03-08T02:14:09.372Z,69.23
2019-03-08T02:16:39.451Z,69.35
2019-03-08T02:19:09.978Z,69.24
2019-03-08T02:21:42.166Z,69.02
2019-03-08T02:24:13.019Z,69.25
2019-03-08T02:26:43.775Z,68.49
2019-03-08T02:29:14.528Z,68.21
2019-03-08T02:31:46.185Z,68.27
2019-03-08T02:34:16.529Z,68.23
2019-03-08T02:36:46.608Z,68.50
2019-03-08T02:39:17.243Z,68.58
2019-03-08T02:41:47.870Z,69.01
2019-03-08T02:44:18.743Z,68.80
2019-03-08T02:46:49.602Z,68.97
2019-03-08T02:49:20.353Z,69.12
2019-03-08T02:51:50.313Z,69.34
2019-03-08T02:54:20.839Z,69.77
2019-03-08T02:56:51.491Z,69.76
2019-03-08T02:59:22.447Z,70.43
2019-03-08T03:01:53.185Z,70.23
2019-03-08T03:04:23.957Z,70.13
2019-03-08T03:06:54.490Z,70.06
2019-03-08T03:09:25.386Z,70.28
2019-03-08T03:11:56.117Z,70.38
2019-03-08T03:14:26.779Z,70.45
2019-03-08T03:16:57.605Z,70.32
2019-03-08T03:19:28.359Z,70.13
2019-03-08T03:21:59.135Z,70.29
2019-03-08T03:24:29.867Z,70.10
2019-03-08T03:27:00.740Z,70.28
2019-03-08T03:29:31.477Z,70.54
2019-03-08T03:32:02.340Z,70.33
2019-03-08T03:34:32.884Z,70.43
2019-03-08T03:37:03.756Z,70.21
2019-03-08T03:39:34.764Z,70.15
2019-03-08T03:42:04.461Z,69.85
2019-03-08T03:44:34.876Z,70.12
2019-03-08T03:47:05.056Z,70.05
2019-03-08T03:49:35.584Z,70.26
2019-03-08T03:52:06.340Z,70.53
2019-03-08T03:54:37.073Z,70.62
2019-03-08T03:57:07.947Z,70.65
2019-03-08T03:59:38.803Z,70.66
2019-03-08T04:02:09.563Z,70.52
2019-03-08T04:04:40.089Z,70.27
2019-03-08T04:07:10.963Z,70.46
2019-03-08T04:09:41.715Z,70.50
2019-03-08T04:12:12.347Z,70.38
2019-03-08T04:14:42.319Z,70.52
2019-03-08T04:17:12.854Z,71.05
2019-03-08T04:19:43.491Z,70.97
2019-03-08T04:22:13.667Z,70.77
2019-03-08T04:24:44.176Z,70.93
2019-03-08T04:27:14.846Z,71.20
2019-03-08T04:29:45.581Z,70.98
2019-03-08T04:32:17.458Z,71.02
2019-03-08T04:34:48.216Z,71.12
2019-03-08T04:37:18.986Z,71.06
2019-03-08T04:39:49.740Z,71.23
2019-03-08T04:42:20.596Z,71.01
2019-03-08T04:44:51.229Z,71.28
2019-03-08T04:47:22.003Z,71.11
2019-03-08T04:49:52.857Z,71.33
2019-03-08T04:52:23.592Z,71.29
2019-03-08T04:54:54.364Z,71.67
2019-03-08T04:57:25.015Z,71.53
2019-03-08T04:59:55.753Z,71.55
2019-03-08T05:02:26.726Z,71.62
2019-03-08T05:04:57.483Z,71.83
2019-03-08T05:07:28.131Z,71.80
2019-03-08T05:09:58.990Z,71.88
2019-03-08T05:12:31.063Z,71.97
2019-03-08T05:15:01.706Z,72.30
2019-03-08T05:17:32.361Z,72.38
2019-03-08T05:20:03.230Z,72.33
2019-03-08T05:22:34.087Z,72.41
2019-03-08T05:25:07.690Z,72.00
2019-03-08T05:27:38.357Z,72.20
2019-03-08T05:30:12.383Z,72.25
2019-03-08T05:32:43.042Z,72.43
2019-03-08T05:35:14.588Z,72.59
2019-03-08T05:37:46.606Z,72.49
2019-03-08T05:40:17.546Z,72.73
2019-03-08T05:42:48.079Z,73.00
2019-03-08T05:45:18.953Z,73.25
2019-03-08T05:47:49.810Z,72.91
2019-03-08T05:50:20.442Z,72.63
2019-03-08T05:52:50.411Z,72.73
2019-03-08T05:55:20.944Z,72.30
2019-03-08T05:57:51.697Z,72.39
2019-03-08T06:00:32.378Z,72.33
2019-03-08T06:02:59.036Z,72.28
2019-03-08T06:05:29.892Z,71.93
2019-03-08T06:08:00.650Z,71.55
2019-03-08T06:10:36.415Z,71.47
2019-03-08T06:13:07.730Z,71.35
2019-03-08T06:15:38.209Z,71.39
2019-03-08T06:18:08.074Z,71.30
2019-03-08T06:20:38.488Z,71.09
2019-03-08T06:23:09.160Z,71.25
2019-03-08T06:25:40.016Z,71.33
2019-03-08T06:28:10.751Z,70.99
2019-03-08T06:30:41.523Z,71.15
2019-03-08T06:33:13.401Z,70.97
2019-03-08T06:35:44.137Z,70.38
2019-03-08T06:38:15.011Z,70.24
2019-03-08T06:40:45.868Z,70.06
2019-03-08T06:43:16.708Z,70.14
2019-03-08T06:45:47.461Z,69.80
2019-03-08T06:48:18.213Z,69.66
2019-03-08T06:50:48.968Z,69.84
2019-03-08T06:53:19.842Z,69.76
2019-03-08T06:55:50.784Z,69.35
2019-03-08T06:58:22.984Z,69.05
2019-03-08T07:00:55.271Z,68.62
2019-03-08T07:03:26.130Z,67.84
2019-03-08T07:05:56.883Z,66.92
2019-03-08T07:08:27.624Z,66.69
2019-03-08T07:10:58.496Z,66.24
2019-03-08T07:13:29.249Z,66.16
2019-03-08T07:15:59.695Z,65.44
2019-03-08T07:18:30.346Z,65.52
2019-03-08T07:21:06.122Z,65.06
2019-03-08T07:23:41.244Z,63.58
2019-03-08T07:26:25.312Z,63.45
2019-03-08T07:28:57.612Z,62.55
2019-03-08T07:31:48.408Z,62.38
2019-03-08T07:34:24.457Z,62.55
2019-03-08T07:36:56.638Z,62.84
2019-03-08T07:39:41.427Z,61.95
2019-03-08T07:42:30.279Z,61.35
2019-03-08T07:45:11.959Z,61.41
2019-03-08T07:47:47.112Z,61.06
2019-03-08T07:50:31.487Z,60.98
2019-03-08T07:53:07.248Z,60.74
2019-03-08T07:55:46.549Z,60.19
2019-03-08T07:58:22.364Z,59.78
2019-03-08T08:01:00.666Z,57.95
2019-03-08T08:03:38.000Z,57.15
2019-03-08T08:06:13.035Z,55.97
2019-03-08T08:09:01.874Z,55.49
2019-03-08T08:11:37.449Z,55.53
2019-03-08T08:14:19.077Z,56.78
2019-03-08T08:16:51.591Z,57.55
2019-03-08T08:19:39.781Z,57.79
2019-03-08T08:22:27.410Z,56.04
2019-03-08T08:25:03.064Z,54.71
2019-03-08T08:27:35.362Z,53.28
2019-03-08T08:30:10.660Z,52.53
2019-03-08T08:32:48.118Z,51.58
2019-03-08T08:35:32.988Z,52.59
2019-03-08T08:38:08.140Z,51.25
2019-03-08T08:40:58.938Z,51.29
2019-03-08T08:43:37.346Z,51.68
2019-03-08T08:46:26.224Z,51.50
2019-03-08T08:49:13.748Z,52.17
2019-03-08T08:51:46.123Z,51.71
2019-03-08T08:54:30.478Z,51.56
2019-03-08T08:57:05.748Z,50.94
2019-03-08T08:59:53.363Z,51.26
2019-03-08T09:02:43.667Z,50.22
2019-03-08T09:05:24.850Z,50.05
2019-03-08T09:07:57.224Z,48.94
2019-03-08T09:10:45.978Z,48.75
2019-03-08T09:13:27.538Z,47.60
2019-03-08T09:16:11.434Z,47.86
2019-03-08T09:19:00.453Z,47.39
2019-03-08T09:21:50.106Z,46.03
2019-03-08T09:24:29.338Z,43.57
2019-03-08T09:27:22.820Z,40.73
2019-03-08T09:29:55.675Z,41.03
2019-03-08T09:32:28.063Z,43.12
2019-03-08T09:35:16.718Z,40.34
2019-03-08T09:37:51.954Z,39.82
2019-03-08T09:40:40.298Z,39.11
2019-03-08T09:43:21.912Z,39.33
2019-03-08T09:45:57.473Z,37.88
2019-03-08T09:48:35.588Z,37.35
2019-03-08T09:51:07.862Z,37.17
2019-03-08T09:53:43.235Z,36.39
2019-03-08T09:56:27.675Z,36.14
2019-03-08T09:59:16.256Z,36.21
2019-03-08T10:01:57.616Z,36.19
2019-03-08T10:04:30.006Z,35.10
2019-03-08T10:07:08.329Z,35.00
2019-03-08T10:09:40.719Z,34.31
2019-03-08T10:12:21.904Z,34.49
2019-03-08T10:15:03.213Z,33.86
2019-03-08T10:17:50.635Z,33.36
2019-03-08T10:20:35.076Z,33.31
2019-03-08T10:23:22.414Z,33.89
2019-03-08T10:25:57.566Z,33.60
2019-03-08T10:28:32.514Z,32.97
2019-03-08T10:31:04.699Z,32.48
2019-03-08T10:33:46.032Z,32.74
2019-03-08T10:36:17.031Z,33.47
2019-03-08T10:38:50.345Z,33.11
2019-03-08T10:41:34.615Z,32.79
2019-03-08T10:44:09.129Z,32.65
2019-03-08T10:46:46.794Z,32.73
2019-03-08T10:49:19.134Z,32.70
2019-03-08T10:52:00.419Z,32.69
2019-03-08T10:54:49.281Z,31.63
2019-03-08T10:57:33.660Z,32.15
2019-03-08T11:00:25.557Z,32.78
2019-03-08T11:03:09.935Z,32.66
2019-03-08T11:05:51.103Z,32.61
2019-03-08T11:08:30.668Z,32.76
2019-03-08T11:11:19.641Z,32.85
2019-03-08T11:14:10.068Z,33.02
2019-03-08T11:16:49.974Z,33.51
2019-03-08T11:19:28.722Z,33.11
2019-03-08T11:22:01.208Z,32.17
2019-03-08T11:24:33.710Z,32.28
2019-03-08T11:27:15.270Z,32.28
2019-03-08T11:29:53.918Z,32.54
2019-03-08T11:32:27.890Z,32.41
2019-03-08T11:35:15.070Z,31.30
2019-03-08T11:37:56.239Z,31.18
2019-03-08T11:40:44.599Z,30.88
2019-03-08T11:43:19.727Z,32.05
2019-03-08T11:45:52.043Z,32.11
2019-03-08T11:48:39.764Z,30.90
2019-03-08T11:51:17.966Z,30.34
2019-03-08T11:54:02.443Z,30.74
2019-03-08T11:56:35.112Z,31.37
2019-03-08T11:59:10.378Z,31.87
2019-03-08T12:01:42.684Z,32.47
2019-03-08T12:04:14.850Z,33.22
2019-03-08T12:06:47.056Z,33.03
2019-03-08T12:09:28.634Z,32.99
2019-03-08T12:12:07.074Z,33.28
2019-03-08T12:14:39.551Z,33.66
2019-03-08T12:17:17.683Z,32.95
2019-03-08T12:19:55.495Z,32.93
2019-03-08T12:22:33.816Z,32.41
2019-03-08T12:25:07.625Z,32.62
2019-03-08T12:27:55.968Z,33.26
2019-03-08T12:30:31.326Z,33.92
2019-03-08T12:33:09.358Z,34.04
2019-03-08T12:35:53.594Z,34.15
2019-03-08T12:38:31.813Z,33.66
2019-03-08T12:41:16.800Z,34.12
2019-03-08T12:44:05.347Z,34.42
2019-03-08T12:46:50.098Z,35.04
2019-03-08T12:49:38.889Z,35.51
2019-03-08T12:52:29.466Z,35.69
2019-03-08T12:55:10.052Z,36.27
2019-03-08T12:57:42.224Z,36.30
2019-03-08T13:00:20.021Z,36.08
2019-03-08T13:02:55.392Z,36.33
2019-03-08T13:05:30.439Z,36.16
2019-03-08T13:08:02.627Z,36.15
2019-03-08T13:10:33.379Z,36.17
2019-03-08T13:13:04.236Z,36.12
2019-03-08T13:15:35.093Z,36.32
2019-03-08T13:18:05.829Z,36.46
2019-03-08T13:20:36.498Z,36.39
2019-03-08T13:23:07.440Z,36.52
2019-03-08T13:25:38.209Z,36.51
2019-03-08T13:28:08.861Z,36.46
2019-03-08T13:30:39.718Z,36.60
2019-03-08T13:33:10.586Z,36.38
2019-03-08T13:35:41.532Z,36.05
2019-03-08T13:38:12.370Z,35.71
2019-03-08T13:40:43.144Z,35.92
2019-03-08T13:43:14.920Z,35.95
2019-03-08T13:45:45.544Z,35.77
2019-03-08T13:48:16.429Z,35.42
2019-03-08T13:50:47.472Z,35.31
2019-03-08T13:53:18.123Z,35.57
2019-03-08T13:55:48.791Z,35.29
2019-03-08T13:58:19.752Z,35.17
2019-03-08T14:00:50.588Z,34.66
2019-03-08T14:03:21.358Z,34.13
2019-03-08T14:05:52.013Z,33.73
2019-03-08T14:08:22.747Z,33.93
2019-03-08T14:10:53.517Z,34.21
2019-03-08T14:13:24.374Z,33.49
2019-03-08T14:15:55.521Z,33.42
2019-03-08T14:18:25.968Z,33.25
2019-03-08T14:20:56.723Z,33.20
2019-03-08T14:23:27.316Z,32.90
2019-03-08T14:25:58.353Z,33.04
2019-03-08T14:28:28.985Z,32.27
2019-03-08T14:31:08.908Z,32.13
2019-03-08T14:33:39.510Z,32.07
2019-03-08T14:36:10.773Z,32.11
2019-03-08T14:38:41.528Z,32.24
2019-03-08T14:41:25.966Z,31.92
2019-03-08T14:43:59.399Z,32.13
2019-03-08T14:46:31.995Z,32.18
2019-03-08T14:49:02.645Z,32.32
2019-03-08T14:51:33.405Z,32.27
2019-03-08T14:54:05.946Z,32.56
2019-03-08T14:56:37.510Z,32.73
2019-03-08T14:59:11.255Z,32.08
2019-03-08T15:01:41.366Z,32.38
2019-03-08T15:04:12.283Z,32.55
2019-03-08T15:06:43.036Z,32.51
2019-03-08T15:09:14.096Z,32.58
2019-03-08T15:11:44.834Z,32.52
2019-03-08T15:14:15.604Z,32.53
2019-03-08T15:16:48.422Z,32.56
2019-03-08T15:19:18.833Z,32.90
2019-03-08T15:21:49.589Z,32.66
2019-03-08T15:24:20.138Z,32.44
2019-03-08T15:26:50.997Z,32.53
2019-03-08T15:29:21.646Z,32.63
2019-03-08T15:31:52.621Z,32.43
2019-03-08T15:34:23.360Z,32.59
2019-03-08T15:36:54.277Z,32.82
2019-03-08T15:39:25.087Z,32.77
2019-03-08T15:41:58.579Z,32.84
2019-03-08T15:44:28.368Z,32.92
2019-03-08T15:47:00.505Z,32.74
2019-03-08T15:49:31.710Z,32.96
2019-03-08T15:52:03.683Z,32.92
2019-03-08T15:54:34.829Z,32.92
2019-03-08T15:57:05.477Z,33.29
2019-03-08T15:59:36.335Z,33.17
2019-03-08T16:02:07.776Z,33.50
2019-03-08T16:04:38.358Z,34.07
2019-03-08T16:07:09.316Z,35.22
2019-03-08T16:09:40.068Z,36.49
2019-03-08T16:12:10.923Z,35.94
2019-03-08T16:14:41.777Z,36.42
2019-03-08T16:17:12.514Z,35.70
2019-03-08T16:19:43.182Z,34.88
2019-03-08T16:22:14.043Z,34.60
2019-03-08T16:24:45.084Z,34.06
2019-03-08T16:27:15.856Z,33.92
2019-03-08T16:29:46.917Z,34.39
2019-03-08T16:32:31.579Z,34.86
2019-03-08T16:35:02.129Z,34.86
2019-03-08T16:37:34.501Z,34.76
2019-03-08T16:40:07.907Z,35.61
2019-03-08T16:42:46.255Z,35.24
2019-03-08T16:45:35.764Z,34.68
2019-03-08T16:48:14.135Z,34.89
2019-03-08T16:51:01.879Z,36.06
2019-03-08T16:53:37.237Z,37.33
2019-03-08T16:56:11.980Z,37.10
2019-03-08T16:58:49.976Z,36.29
2019-03-08T17:01:37.213Z,36.08
2019-03-08T17:04:15.230Z,35.88
2019-03-08T17:06:56.398Z,35.74
2019-03-08T17:09:47.043Z,35.97
2019-03-08T17:12:19.403Z,37.06
2019-03-08T17:15:03.741Z,36.67
2019-03-08T17:17:48.120Z,37.37
2019-03-08T17:20:31.347Z,37.67
2019-03-08T17:23:09.976Z,37.97
2019-03-08T17:25:48.298Z,38.29
2019-03-08T17:28:32.349Z,38.49
2019-03-08T17:31:07.583Z,38.76
2019-03-08T17:33:42.735Z,38.76
2019-03-08T17:36:14.932Z,39.60
2019-03-08T17:38:56.328Z,40.65
2019-03-08T17:41:37.806Z,41.28
2019-03-08T17:44:12.957Z,41.96
2019-03-08T17:47:02.447Z,41.92
2019-03-08T17:49:50.993Z,42.29
2019-03-08T17:52:26.867Z,42.52
2019-03-08T17:54:59.233Z,43.13
2019-03-08T17:57:40.539Z,43.79
2019-03-08T18:00:27.965Z,43.88
2019-03-08T18:03:00.336Z,44.11
2019-03-08T18:05:49.014Z,45.29
2019-03-08T18:08:24.055Z,45.94
2019-03-08T18:11:02.177Z,47.49
2019-03-08T18:13:40.596Z,48.26
2019-03-08T18:16:13.102Z,48.22
2019-03-08T18:18:48.344Z,49.21
2019-03-08T18:21:35.792Z,49.22
2019-03-08T18:24:08.467Z,49.33
2019-03-08T18:26:49.643Z,49.84
2019-03-08T18:29:24.683Z,49.83
2019-03-08T18:31:57.073Z,50.39
2019-03-08T18:34:35.435Z,50.36
2019-03-08T18:37:08.003Z,50.80
2019-03-08T18:39:41.058Z,50.61
2019-03-08T18:42:28.830Z,50.87
2019-03-08T18:45:04.308Z,50.80
2019-03-08T18:47:40.277Z,51.40
2019-03-08T18:50:28.927Z,51.41
2019-03-08T18:53:17.681Z,51.98
2019-03-08T18:55:50.378Z,52.23
2019-03-08T18:58:34.939Z,52.64
2019-03-08T19:01:07.125Z,52.79
2019-03-08T19:03:54.653Z,52.70
2019-03-08T19:06:27.041Z,52.86
2019-03-08T19:08:59.880Z,53.28
2019-03-08T19:11:44.711Z,53.07
2019-03-08T19:14:16.997Z,52.87
2019-03-08T19:16:52.134Z,53.02
2019-03-08T19:19:24.539Z,53.14
2019-03-08T19:21:56.814Z,53.30
2019-03-08T19:24:41.083Z,52.73
2019-03-08T19:27:16.114Z,51.91
2019-03-08T19:29:48.402Z,51.58
2019-03-08T19:32:23.880Z,51.20
2019-03-08T19:35:05.168Z,50.75
2019-03-08T19:37:55.542Z,50.28
2019-03-08T19:40:30.812Z,50.25
2019-03-08T19:43:03.100Z,50.65
2019-03-08T19:45:52.389Z,49.59
2019-03-08T19:48:25.879Z,50.08
2019-03-08T19:51:07.767Z,49.92
2019-03-08T19:53:49.087Z,49.82
2019-03-08T19:56:30.547Z,50.08
2019-03-08T19:59:06.749Z,49.95
2019-03-08T20:01:39.602Z,50.50
2019-03-08T20:04:32.555Z,50.83
2019-03-08T20:07:05.695Z,50.82
2019-03-08T20:09:41.323Z,50.89
2019-03-08T20:12:23.668Z,51.03
2019-03-08T20:14:58.126Z,51.58
2019-03-08T20:17:36.614Z,51.97
2019-03-08T20:20:14.943Z,52.44
2019-03-08T20:22:49.799Z,52.59
2019-03-08T20:25:21.768Z,53.07
2019-03-08T20:27:54.070Z,53.78
2019-03-08T20:30:29.462Z,53.81
2019-03-08T20:33:18.383Z,53.46
2019-03-08T20:36:03.635Z,53.55
2019-03-08T20:38:41.780Z,53.44
2019-03-08T20:41:14.167Z,53.57
2019-03-08T20:43:46.437Z,53.46
2019-03-08T20:46:21.810Z,53.92
2019-03-08T20:48:53.385Z,53.51
2019-03-08T20:51:24.138Z,52.97
2019-03-08T20:53:54.994Z,52.79
2019-03-08T20:56:25.935Z,52.76
2019-03-08T20:58:56.583Z,52.13
2019-03-08T21:01:27.462Z,51.93
2019-03-08T21:03:58.317Z,52.23
2019-03-08T21:06:29.156Z,52.55
2019-03-08T21:08:59.519Z,53.33
2019-03-08T21:11:30.271Z,53.75
2019-03-08T21:14:00.926Z,53.77
2019-03-08T21:16:32.327Z,53.65
2019-03-08T21:19:02.840Z,53.85
2019-03-08T21:21:32.587Z,54.17
2019-03-08T21:24:03.213Z,53.37
2019-03-08T21:26:34.077Z,53.78
2019-03-08T21:29:04.934Z,53.61
2019-03-08T21:31:35.570Z,54.06
2019-03-08T21:34:06.339Z,54.18
2019-03-08T21:36:37.516Z,54.52
2019-03-08T21:39:08.257Z,54.60
2019-03-08T21:41:38.893Z,54.18
2019-03-08T21:44:08.969Z,53.81
2019-03-08T21:46:39.476Z,53.74
2019-03-08T21:49:11.866Z,53.29
2019-03-08T21:51:42.621Z,53.52
2019-03-08T21:54:12.283Z,53.38
2019-03-08T21:56:42.816Z,53.36
2019-03-08T21:59:13.672Z,53.19
2019-03-08T22:01:43.522Z,53.70
2019-03-08T22:04:15.573Z,53.29
2019-03-08T22:06:46.449Z,52.55
2019-03-08T22:09:21.597Z,52.52
2019-03-08T22:11:51.943Z,53.16
2019-03-08T22:14:22.679Z,53.40
2019-03-08T22:16:53.226Z,53.67
2019-03-08T22:19:23.308Z,53.52
2019-03-08T22:21:53.715Z,53.22
2019-03-08T22:24:23.682Z,53.19
2019-03-08T22:26:54.219Z,54.03
2019-03-08T22:29:24.973Z,53.58
2019-03-08T22:31:55.810Z,54.30
2019-03-08T22:34:26.682Z,53.32
2019-03-08T22:36:57.334Z,52.58
2019-03-08T22:39:27.986Z,51.55
2019-03-08T22:41:58.824Z,51.87
2019-03-08T22:44:29.595Z,50.98
2019-03-08T22:47:00.553Z,50.96
2019-03-08T22:49:32.434Z,51.31
2019-03-08T22:52:03.272Z,52.27
2019-03-08T22:54:34.145Z,52.00
2019-03-08T22:57:05.001Z,52.28
2019-03-08T22:59:35.756Z,52.80
2019-03-08T23:02:07.883Z,52.76
2019-03-08T23:04:38.287Z,52.92
2019-03-08T23:07:08.238Z,52.67
2019-03-08T23:09:39.180Z,52.95
2019-03-08T23:12:09.830Z,52.83
2019-03-08T23:14:39.791Z,52.15
2019-03-08T23:17:10.315Z,51.95
2019-03-08T23:19:40.378Z,51.90
2019-03-08T23:22:10.900Z,52.27
2019-03-08T23:24:41.554Z,51.71
2019-03-08T23:27:16.500Z,50.85
2019-03-08T23:29:48.583Z,52.02
2019-03-08T23:32:20.856Z,51.43
2019-03-08T23:34:51.711Z,51.51
2019-03-08T23:37:22.380Z,52.03
2019-03-08T23:39:53.133Z,52.73
2019-03-08T23:42:23.885Z,51.68
2019-03-08T23:44:53.848Z,52.04
2019-03-08T23:47:24.375Z,52.42
2019-03-08T23:49:55.418Z,52.11
2019-03-08T23:52:26.170Z,51.57
2019-03-08T23:54:57.454Z,51.44
2019-03-08T23:57:28.293Z,50.94
2019-03-08T23:59:58.270Z,51.47
